Time;durP1;ratioP1;P1;durP2;ratioP2;P2;SDS_P1;SDS_P2;PMS_P1;PMS_P2;Temp;Humidity;BMP_temperature;BMP_pressure;BME280_temperature;BME280_humidity;BME280_pressure;Samples;Min_cycle;Max_cycle;Signal;HPM_P1;HPM_P2
2023/09/12 00:02:17;;;;;;;8.80;5.53;;;25.80;85.80;;;;;;7407570;19;20007;-77
2023/09/12 00:04:46;;;;;;;8.38;6.00;;;25.80;85.80;;;;;;7385216;19;20006;-78
2023/09/12 00:07:14;;;;;;;8.65;6.07;;;25.80;85.70;;;;;;7387662;19;20010;-78
2023/09/12 00:09:43;;;;;;;9.35;5.80;;;25.90;85.80;;;;;;7386612;19;20007;-78
2023/09/12 00:12:12;;;;;;;9.18;6.50;;;25.80;85.80;;;;;;7385516;19;20003;-78
2023/09/12 00:14:41;;;;;;;10.57;6.47;;;25.80;85.70;;;;;;7387428;19;20055;-78
2023/09/12 00:17:16;;;;;;;8.40;5.68;;;25.70;85.60;;;;;;7407264;19;20003;-80
2023/09/12 00:20:08;;;;;;;9.10;5.93;;;25.70;85.90;;;;;;7386787;19;20366;-80
2023/09/12 00:22:36;;;;;;;;;;;25.60;86.00;;;;;;7387109;19;20024;-78
2023/09/12 00:25:05;;;;;;;13.32;6.00;;;25.70;86.10;;;;;;7386812;19;20131;-78
2023/09/12 00:27:34;;;;;;;7.15;5.82;;;25.70;85.80;;;;;;7387075;19;20014;-77
2023/09/12 00:30:03;;;;;;;10.95;6.18;;;25.60;85.80;;;;;;7385238;19;20006;-82
2023/09/12 00:32:31;;;;;;;10.48;6.05;;;25.60;86.00;;;;;;7407173;19;20021;-78
2023/09/12 00:35:03;;;;;;;12.65;6.07;;;25.50;85.80;;;;;;7385164;19;19999;-81
2023/09/12 00:37:32;;;;;;;9.10;5.57;;;25.50;85.60;;;;;;7387241;19;20014;-81
2023/09/12 00:40:00;;;;;;;11.13;6.10;;;25.50;85.50;;;;;;7385866;19;20031;-77
2023/09/12 00:42:29;;;;;;;11.80;6.53;;;25.50;85.70;;;;;;7383908;19;19998;-78
2023/09/12 00:44:58;;;;;;;7.05;5.57;;;25.50;85.80;;;;;;7384492;19;20390;-78
2023/09/12 00:47:27;;;;;;;7.53;5.80;;;25.50;85.80;;;;;;7409202;19;20010;-78
2023/09/12 00:49:58;;;;;;;13.25;6.57;;;25.40;86.00;;;;;;7385608;19;20015;-77
2023/09/12 00:52:30;;;;;;;10.82;5.95;;;25.40;86.00;;;;;;7387171;19;20024;-78
2023/09/12 00:54:59;;;;;;;10.02;6.43;;;25.30;87.00;;;;;;7384827;19;20401;-78
2023/09/12 00:57:28;;;;;;;10.32;6.35;;;25.30;86.40;;;;;;7385475;19;20357;-78
2023/09/12 00:59:58;;;;;;;13.85;6.40;;;25.30;86.50;;;;;;7385486;19;19988;-77
2023/09/12 01:02:27;;;;;;;13.45;6.65;;;25.30;86.70;;;;;;7407307;19;20032;-78
2023/09/12 01:04:56;;;;;;;13.13;7.00;;;25.30;86.70;;;;;;7386694;19;20006;-79
2023/09/12 01:07:25;;;;;;;8.32;6.18;;;25.20;86.60;;;;;;7405960;19;20003;-78
2023/09/12 01:09:56;;;;;;;15.05;6.32;;;25.20;86.80;;;;;;7405422;19;20014;-79
2023/09/12 01:12:25;;;;;;;11.77;6.93;;;25.20;86.90;;;;;;7406831;19;20014;-79
2023/09/12 01:14:54;;;;;;;11.18;5.97;;;25.20;86.80;;;;;;7405289;19;20013;-78
2023/09/12 01:17:22;;;;;;;9.65;6.40;;;25.20;86.60;;;;;;7406547;19;20017;-80
2023/09/12 01:19:51;;;;;;;8.40;5.88;;;25.20;86.70;;;;;;7385627;19;20010;-79
2023/09/12 01:22:41;;;;;;;14.70;6.60;;;25.20;86.60;;;;;;7384532;19;20228;-78
2023/09/12 01:25:37;;;;;;;9.32;6.53;;;25.20;86.80;;;;;;7384562;19;20006;-79
2023/09/12 01:28:11;;;;;;;14.32;7.78;;;25.10;86.80;;;;;;7386268;19;20018;-79
2023/09/12 01:30:44;;;;;;;10.25;7.30;;;25.10;86.90;;;;;;7384349;19;20006;-79
2023/09/12 01:33:13;;;;;;;12.52;7.03;;;25.00;86.90;;;;;;7383980;19;20027;-78
2023/09/12 01:35:43;;;;;;;9.85;7.40;;;25.00;87.10;;;;;;7383222;19;20128;-78
2023/09/12 01:38:12;;;;;;;10.20;7.18;;;25.00;87.20;;;;;;7404895;19;20031;-79
2023/09/12 01:40:46;;;;;;;14.60;7.22;;;25.00;87.20;;;;;;7384366;19;20006;-78
2023/09/12 01:43:20;;;;;;;11.55;7.38;;;25.00;87.30;;;;;;7385257;19;20010;-79
2023/09/12 01:45:50;;;;;;;9.02;6.20;;;25.00;87.00;;;;;;7384750;19;20009;-78
2023/09/12 01:48:26;;;;;;;12.18;6.60;;;25.00;86.70;;;;;;7383323;19;20007;-78
2023/09/12 01:50:56;;;;;;;11.25;6.78;;;25.10;86.60;;;;;;7382365;19;20013;-78
2023/09/12 01:53:25;;;;;;;9.30;6.75;;;25.00;86.40;;;;;;7404658;19;20231;-78
2023/09/12 01:55:54;;;;;;;12.80;6.60;;;25.00;86.60;;;;;;7383024;19;20010;-77
2023/09/12 01:58:27;;;;;;;9.88;6.20;;;24.90;86.30;;;;;;7384324;19;20055;-78
2023/09/12 02:00:57;;;;;;;10.55;7.35;;;24.90;86.30;;;;;;7384297;19;20135;-78
2023/09/12 02:03:25;;;;;;;10.75;6.53;;;24.90;86.30;;;;;;7383439;19;20362;-78
2023/09/12 02:05:54;;;;;;;11.60;6.95;;;24.90;86.40;;;;;;7383679;19;20003;-78
2023/09/12 02:08:23;;;;;;;9.15;7.53;;;25.00;86.40;;;;;;7403741;19;20038;-79
2023/09/12 02:10:51;;;;;;;10.15;6.45;;;24.90;86.00;;;;;;7387056;19;20035;-78
2023/09/12 02:13:20;;;;;;;14.05;7.20;;;25.00;86.00;;;;;;7390170;19;20010;-78
2023/09/12 02:15:52;;;;;;;11.38;6.88;;;24.90;85.80;;;;;;7388973;19;20006;-79
2023/09/12 02:18:20;;;;;;;11.77;7.07;;;24.90;85.90;;;;;;7390046;19;20012;-79
2023/09/12 02:20:49;;;;;;;17.42;7.65;;;24.90;86.00;;;;;;7388393;19;20003;-79
2023/09/12 02:23:18;;;;;;;13.23;7.47;;;24.80;86.10;;;;;;7413065;19;20007;-78
2023/09/12 02:25:47;;;;;;;11.35;6.80;;;24.80;86.40;;;;;;7390451;19;20014;-79
2023/09/12 02:28:15;;;;;;;16.05;8.60;;;24.80;86.30;;;;;;7390806;19;20007;-79
2023/09/12 02:30:44;;;;;;;9.48;7.50;;;24.80;86.60;;;;;;7390816;19;20271;-78
2023/09/12 02:33:15;;;;;;;11.63;8.13;;;24.70;86.80;;;;;;7387662;19;20023;-78
2023/09/12 02:35:44;;;;;;;15.38;7.47;;;24.70;86.90;;;;;;7386793;19;20031;-77
2023/09/12 02:38:13;;;;;;;10.32;6.47;;;24.70;87.10;;;;;;7412284;19;20035;-78
2023/09/12 02:40:42;;;;;;;13.07;8.10;;;24.70;87.00;;;;;;7388813;19;20031;-78
2023/09/12 02:43:10;;;;;;;14.45;6.95;;;24.70;87.00;;;;;;7388210;19;20098;-78
2023/09/12 02:45:39;;;;;;;15.20;8.13;;;24.80;87.00;;;;;;7387607;19;20031;-78
2023/09/12 02:48:08;;;;;;;12.15;7.55;;;24.70;87.00;;;;;;7386742;19;20006;-79
2023/09/12 02:50:40;;;;;;;20.95;9.38;;;24.70;87.00;;;;;;7391858;19;20031;-78
2023/09/12 02:53:09;;;;;;;13.55;9.63;;;24.70;87.40;;;;;;7407850;19;19999;-82
2023/09/12 02:55:42;;;;;;;21.88;10.68;;;24.70;87.60;;;;;;7389317;19;20003;-79
2023/09/12 02:58:11;;;;;;;14.85;9.30;;;24.70;87.70;;;;;;7405236;19;20010;-79
2023/09/12 03:00:42;;;;;;;12.13;9.02;;;24.70;87.90;;;;;;7407101;19;20006;-79
2023/09/12 03:03:11;;;;;;;8.80;6.85;;;24.70;87.50;;;;;;7408587;19;20046;-78
2023/09/12 03:05:42;;;;;;;14.18;7.53;;;24.70;87.20;;;;;;7406927;19;20015;-77
2023/09/12 03:08:11;;;;;;;12.85;7.68;;;24.70;87.10;;;;;;7409204;19;20007;-77
2023/09/12 03:10:40;;;;;;;11.77;7.93;;;24.80;87.20;;;;;;7389097;19;20010;-78
2023/09/12 03:13:08;;;;;;;18.13;8.82;;;24.80;87.00;;;;;;7389677;19;20007;-79
2023/09/12 03:15:40;;;;;;;14.65;8.23;;;24.90;86.90;;;;;;7388232;19;20003;-79
2023/09/12 03:18:12;;;;;;;13.52;9.30;;;24.90;86.80;;;;;;7386941;19;20014;-79
2023/09/12 03:20:44;;;;;;;16.10;9.32;;;24.90;86.90;;;;;;7386071;19;20006;-79
2023/09/12 03:23:13;;;;;;;16.55;10.75;;;24.90;86.90;;;;;;7408438;19;20365;-78
2023/09/12 03:25:42;;;;;;;18.80;10.05;;;24.90;87.10;;;;;;7388310;19;20023;-78
2023/09/12 03:28:11;;;;;;;15.98;9.98;;;24.90;87.20;;;;;;7386898;19;20010;-79
2023/09/12 03:30:41;;;;;;;19.15;10.38;;;24.90;87.00;;;;;;7387088;19;20042;-79
2023/09/12 03:33:09;;;;;;;26.95;14.07;;;24.80;87.00;;;;;;7387700;19;20034;-79
2023/09/12 03:35:38;;;;;;;27.65;14.88;;;24.70;87.60;;;;;;7385359;19;20002;-79
2023/09/12 03:38:10;;;;;;;25.98;16.02;;;24.60;88.50;;;;;;7407313;19;20358;-78
2023/09/12 03:40:39;;;;;;;32.83;14.73;;;24.50;88.80;;;;;;7388388;19;20003;-77
2023/09/12 03:43:08;;;;;;;30.90;16.77;;;24.50;89.00;;;;;;7386969;19;20002;-78
2023/09/12 03:45:37;;;;;;;26.13;16.85;;;24.40;89.10;;;;;;7388992;19;20006;-78
2023/09/12 03:48:07;;;;;;;28.73;15.80;;;24.40;89.40;;;;;;7392475;19;20361;-78
2023/09/12 03:50:35;;;;;;;31.50;15.77;;;24.40;89.40;;;;;;7407152;19;20242;-80
2023/09/12 03:53:05;;;;;;;27.67;16.23;;;24.40;89.50;;;;;;7408547;19;20035;-79
2023/09/12 03:55:36;;;;;;;22.30;14.68;;;24.40;89.60;;;;;;7388816;19;20002;-79
2023/09/12 03:58:06;;;;;;;27.30;14.13;;;24.40;89.70;;;;;;7387704;19;20103;-79
2023/09/12 04:00:34;;;;;;;21.05;12.55;;;24.40;89.50;;;;;;7388551;19;20356;-78
2023/09/12 04:03:03;;;;;;;26.98;13.43;;;24.50;89.40;;;;;;7388351;19;20010;-78
2023/09/12 04:05:32;;;;;;;21.85;13.88;;;24.60;89.20;;;;;;7407059;19;20002;-78
2023/09/12 04:08:01;;;;;;;23.80;13.52;;;24.50;89.00;;;;;;7388577;19;20013;-78
2023/09/12 04:10:29;;;;;;;27.27;14.35;;;24.60;89.00;;;;;;7387402;19;20003;-79
2023/09/12 04:13:01;;;;;;;28.42;16.75;;;24.50;89.00;;;;;;7386950;19;20003;-79
2023/09/12 04:15:29;;;;;;;23.55;15.85;;;24.40;89.20;;;;;;7386395;19;20275;-79
2023/09/12 04:17:58;;;;;;;26.05;15.35;;;24.30;89.70;;;;;;7386569;19;20022;-79
2023/09/12 04:20:27;;;;;;;28.20;17.08;;;24.30;89.80;;;;;;7406999;19;20002;-78
2023/09/12 04:22:56;;;;;;;30.27;16.77;;;24.20;90.00;;;;;;7387721;19;20385;-78
2023/09/12 04:25:25;;;;;;;33.05;17.30;;;24.10;90.00;;;;;;7386956;19;20021;-78
2023/09/12 04:27:54;;;;;;;28.35;16.85;;;24.00;90.20;;;;;;7387275;19;20007;-78
2023/09/12 04:30:25;;;;;;;31.40;16.13;;;24.00;90.30;;;;;;7385342;19;20023;-79
2023/09/12 04:32:54;;;;;;;30.92;17.50;;;24.00;90.30;;;;;;7384021;19;20022;-78
2023/09/12 04:35:25;;;;;;;26.13;17.20;;;24.00;90.30;;;;;;7407104;19;20031;-78
2023/09/12 04:37:53;;;;;;;32.58;18.70;;;24.10;90.30;;;;;;7384945;19;20006;-78
2023/09/12 04:40:24;;;;;;;29.38;16.80;;;24.00;90.20;;;;;;7387002;19;20251;-79
2023/09/12 04:42:53;;;;;;;28.30;15.38;;;24.10;90.30;;;;;;7387429;19;19998;-78
2023/09/12 04:45:21;;;;;;;29.27;15.73;;;24.10;90.30;;;;;;7385318;19;19998;-78
2023/09/12 04:47:53;;;;;;;24.70;14.75;;;24.20;90.30;;;;;;7385729;19;20027;-79
2023/09/12 04:50:21;;;;;;;27.40;16.70;;;24.20;90.20;;;;;;7414019;19;20010;-78
2023/09/12 04:52:50;;;;;;;32.85;18.88;;;24.30;90.00;;;;;;7408762;19;20018;-79
2023/09/12 04:55:19;;;;;;;25.38;17.95;;;24.30;90.00;;;;;;7407750;19;20006;-78
2023/09/12 04:57:48;;;;;;;31.42;19.13;;;24.20;90.00;;;;;;7407418;19;20025;-78
2023/09/12 05:00:17;;;;;;;40.65;19.27;;;24.20;90.10;;;;;;7388294;19;20267;-77
2023/09/12 05:02:46;;;;;;;34.35;19.63;;;24.10;90.10;;;;;;7384560;19;20009;-78
2023/09/12 05:05:17;;;;;;;34.70;19.20;;;24.10;90.10;;;;;;7405600;19;20308;-78
2023/09/12 05:07:46;;;;;;;34.65;19.58;;;24.00;90.20;;;;;;7386546;19;20031;-78
2023/09/12 05:10:15;;;;;;;33.10;19.80;;;24.00;90.30;;;;;;7385907;19;20006;-78
2023/09/12 05:12:43;;;;;;;34.20;19.80;;;24.00;90.30;;;;;;7385058;19;20006;-78
2023/09/12 05:15:13;;;;;;;30.88;18.63;;;23.90;90.30;;;;;;7386314;19;20007;-78
2023/09/12 05:17:41;;;;;;;31.75;19.40;;;23.90;90.40;;;;;;7383123;19;20003;-78
2023/09/12 05:20:11;;;;;;;30.02;17.33;;;23.90;90.50;;;;;;7405527;19;20010;-79
2023/09/12 05:22:43;;;;;;;33.90;19.80;;;23.90;90.40;;;;;;7384960;19;20268;-79
2023/09/12 05:25:12;;;;;;;36.33;19.27;;;23.90;90.30;;;;;;7385267;19;20060;-79
2023/09/12 05:27:40;;;;;;;32.80;19.50;;;23.90;90.40;;;;;;7384192;19;20024;-79
2023/09/12 05:30:10;;;;;;;35.60;18.15;;;23.90;90.40;;;;;;7383456;19;20034;-79
2023/09/12 05:32:39;;;;;;;28.85;17.83;;;23.90;90.80;;;;;;7382787;19;20334;-78
2023/09/12 05:35:08;;;;;;;37.38;18.20;;;24.00;90.40;;;;;;7407315;19;20034;-78
2023/09/12 05:37:37;;;;;;;37.05;18.73;;;24.00;90.30;;;;;;7383215;19;20010;-78
2023/09/12 05:40:10;;;;;;;29.45;18.33;;;24.00;90.20;;;;;;7384907;19;20022;-78
2023/09/12 05:42:38;;;;;;;31.42;17.17;;;24.10;90.20;;;;;;7382724;19;20031;-78
2023/09/12 05:45:09;;;;;;;24.48;15.52;;;24.10;90.10;;;;;;7383007;19;20010;-78
2023/09/12 05:47:37;;;;;;;35.00;19.60;;;24.10;90.10;;;;;;7384860;19;20023;-78
2023/09/12 05:50:08;;;;;;;33.85;20.13;;;24.10;90.00;;;;;;7406128;19;20010;-78
2023/09/12 05:52:37;;;;;;;35.08;18.83;;;24.10;90.00;;;;;;7383479;19;20007;-78
2023/09/12 05:55:09;;;;;;;38.50;20.42;;;24.10;90.10;;;;;;7383099;19;20010;-77
2023/09/12 05:57:37;;;;;;;37.97;22.05;;;24.00;90.10;;;;;;7383749;19;20041;-77
2023/09/12 06:00:10;;;;;;;33.28;19.75;;;23.90;90.20;;;;;;7383819;19;20011;-78
2023/09/12 06:02:38;;;;;;;36.10;19.23;;;23.80;90.30;;;;;;7382641;19;20014;-78
2023/09/12 06:05:08;;;;;;;33.88;19.83;;;23.60;90.60;;;;;;7403572;19;20008;-79
2023/09/12 06:07:39;;;;;;;32.40;20.48;;;23.70;90.70;;;;;;7383789;19;20006;-79
2023/09/12 06:10:11;;;;;;;37.85;21.65;;;23.60;90.80;;;;;;7385639;19;20385;-79
2023/09/12 06:12:40;;;;;;;37.75;21.85;;;23.70;90.70;;;;;;7383874;19;20358;-77
2023/09/12 06:15:09;;;;;;;30.52;20.50;;;23.50;90.90;;;;;;7384314;19;20014;-78
2023/09/12 06:17:38;;;;;;;34.92;19.90;;;23.50;90.90;;;;;;7382845;19;20055;-79
2023/09/12 06:20:08;;;;;;;29.23;19.00;;;23.50;90.90;;;;;;7403560;19;20014;-78
2023/09/12 06:22:37;;;;;;;32.47;19.67;;;23.50;91.00;;;;;;7383846;19;20006;-78
2023/09/12 06:25:07;;;;;;;30.77;19.65;;;23.60;90.90;;;;;;7383895;19;20002;-78
2023/09/12 06:27:38;;;;;;;33.05;19.13;;;23.70;90.80;;;;;;7382259;19;20006;-78
2023/09/12 06:30:08;;;;;;;40.03;20.13;;;23.70;90.70;;;;;;7384509;19;20007;-78
2023/09/12 06:32:38;;;;;;;40.15;18.58;;;23.80;90.60;;;;;;7387797;19;20256;-79
2023/09/12 06:35:10;;;;;;;35.10;19.88;;;23.90;90.50;;;;;;7403726;19;20042;-79
2023/09/12 06:37:39;;;;;;;36.60;19.50;;;23.90;90.50;;;;;;7381347;19;20088;-78
2023/09/12 06:40:09;;;;;;;30.45;16.55;;;23.90;90.40;;;;;;7382801;19;20383;-79
2023/09/12 06:42:41;;;;;;;38.90;17.53;;;24.00;90.40;;;;;;7382295;19;20098;-78
2023/09/12 06:45:10;;;;;;;;;;;24.00;90.30;;;;;;7381921;19;20006;-79
2023/09/12 06:47:38;;;;;;;27.15;17.52;;;24.20;90.30;;;;;;7380281;19;19932;-78
2023/09/12 06:50:08;;;;;;;29.95;18.10;;;24.20;90.10;;;;;;7410811;19;20039;-77
2023/09/12 06:52:37;;;;;;;26.52;16.60;;;24.40;90.00;;;;;;7402503;19;20022;-78
2023/09/12 06:55:07;;;;;;;32.20;17.77;;;24.50;89.80;;;;;;7402747;19;20011;-77
2023/09/12 06:57:35;;;;;;;31.95;16.42;;;24.60;89.30;;;;;;7408190;19;20007;-78
2023/09/12 07:00:09;;;;;;;32.05;18.02;;;24.60;88.90;;;;;;7410011;19;20034;-78
2023/09/12 07:02:38;;;;;;;32.50;16.95;;;24.50;88.50;;;;;;7393380;19;20013;-79
2023/09/12 07:05:07;;;;;;;28.27;17.73;;;24.60;88.60;;;;;;7409560;19;20014;-78
2023/09/12 07:07:36;;;;;;;27.08;15.73;;;24.40;88.40;;;;;;7389023;19;20006;-78
2023/09/12 07:10:06;;;;;;;23.58;15.43;;;24.40;88.80;;;;;;7390139;19;20034;-78
2023/09/12 07:12:34;;;;;;;30.85;16.77;;;24.40;89.70;;;;;;7387595;19;20009;-78
2023/09/12 07:15:03;;;;;;;28.02;16.45;;;24.40;89.00;;;;;;7386916;19;20385;-79
2023/09/12 07:17:35;;;;;;;29.75;16.85;;;24.40;88.80;;;;;;7408207;19;20007;-77
2023/09/12 07:20:04;;;;;;;26.35;16.33;;;24.30;89.00;;;;;;7388668;19;20216;-78
2023/09/12 07:22:32;;;;;;;22.70;15.25;;;24.30;89.20;;;;;;7388142;19;20238;-78
2023/09/12 07:25:03;;;;;;;32.35;17.20;;;24.20;89.30;;;;;;7388052;19;20031;-79
2023/09/12 07:27:31;;;;;;;25.00;15.60;;;24.10;89.20;;;;;;7388328;19;20007;-78
2023/09/12 07:30:00;;;;;;;24.90;13.10;;;24.20;89.60;;;;;;7385882;19;20003;-77
2023/09/12 07:32:30;;;;;;;23.95;14.73;;;24.30;89.60;;;;;;7412509;19;20013;-78
2023/09/12 07:35:02;;;;;;;22.77;13.63;;;24.30;89.20;;;;;;7388274;19;20010;-79
2023/09/12 07:37:30;;;;;;;24.40;15.63;;;24.40;89.10;;;;;;7388803;19;20010;-78
2023/09/12 07:39:59;;;;;;;25.58;15.35;;;24.30;88.70;;;;;;7386944;19;20023;-77
2023/09/12 07:42:28;;;;;;;21.10;15.10;;;24.40;88.50;;;;;;7386275;19;20007;-78
2023/09/12 07:44:57;;;;;;;26.20;16.42;;;24.30;88.50;;;;;;7386104;19;20028;-77
2023/09/12 07:47:26;;;;;;;24.52;15.82;;;24.20;88.50;;;;;;7407170;19;20028;-78
2023/09/12 07:49:56;;;;;;;25.08;14.32;;;24.20;88.70;;;;;;7387312;19;20210;-79
2023/09/12 07:52:27;;;;;;;30.93;14.20;;;24.10;88.80;;;;;;7386703;19;20046;-78
2023/09/12 07:55:01;;;;;;;;;;;24.20;89.00;;;;;;7387263;19;20252;-78
2023/09/12 07:57:31;;;;;;;25.00;15.50;;;24.30;89.10;;;;;;7386358;19;19918;-78
2023/09/12 08:00:00;;;;;;;27.92;15.00;;;24.30;88.90;;;;;;7386163;19;20007;-78
2023/09/12 08:02:28;;;;;;;20.58;13.95;;;24.30;88.70;;;;;;7408955;19;20030;-78
2023/09/12 08:04:57;;;;;;;26.60;14.63;;;24.40;88.80;;;;;;7388557;19;20002;-78
2023/09/12 08:07:29;;;;;;;22.42;14.23;;;24.30;88.70;;;;;;7386713;19;20002;-78
2023/09/12 08:09:59;;;;;;;24.40;15.20;;;24.30;88.50;;;;;;7386540;19;20006;-78
2023/09/12 08:12:29;;;;;;;22.95;13.73;;;24.30;88.30;;;;;;7387422;19;20010;-79
2023/09/12 08:14:59;;;;;;;24.88;14.07;;;24.20;88.70;;;;;;7385731;19;20407;-78
2023/09/12 08:17:28;;;;;;;23.17;14.45;;;24.30;88.90;;;;;;7407214;19;20007;-78
2023/09/12 08:19:57;;;;;;;25.73;14.93;;;24.30;88.70;;;;;;7387064;19;20035;-78
2023/09/12 08:22:28;;;;;;;24.42;13.35;;;24.20;88.60;;;;;;7387716;19;20026;-79
2023/09/12 08:24:57;;;;;;;19.05;13.07;;;24.20;88.80;;;;;;7386248;19;20019;-79
2023/09/12 08:27:26;;;;;;;23.77;15.45;;;24.20;88.80;;;;;;7388697;19;20024;-79
2023/09/12 08:29:55;;;;;;;22.33;13.90;;;24.30;88.80;;;;;;7387828;19;20322;-79
2023/09/12 08:32:24;;;;;;;26.50;14.90;;;24.30;88.80;;;;;;7408114;19;20014;-78
2023/09/12 08:34:53;;;;;;;23.40;15.18;;;24.20;89.00;;;;;;7387722;19;20019;-79
2023/09/12 08:37:21;;;;;;;26.55;14.32;;;24.30;88.80;;;;;;7387473;19;20003;-79
2023/09/12 08:39:56;;;;;;;28.55;16.38;;;24.30;88.70;;;;;;7388392;19;20029;-79
2023/09/12 08:42:26;;;;;;;30.85;16.38;;;24.10;89.00;;;;;;7388120;19;20003;-79
2023/09/12 08:44:55;;;;;;;25.47;16.33;;;24.10;89.10;;;;;;7385058;19;20038;-79
2023/09/12 08:47:26;;;;;;;24.23;14.70;;;24.10;89.00;;;;;;7405501;19;20007;-79
2023/09/12 08:49:56;;;;;;;27.70;17.80;;;24.20;89.00;;;;;;7385328;19;20020;-77
2023/09/12 08:52:24;;;;;;;29.50;17.02;;;24.00;89.10;;;;;;7384357;19;20011;-78
2023/09/12 08:54:56;;;;;;;28.88;17.65;;;24.20;89.30;;;;;;7383691;19;20215;-79
2023/09/12 08:57:25;;;;;;;28.40;16.02;;;24.10;89.00;;;;;;7391192;19;20003;-79
2023/09/12 08:59:54;;;;;;;24.63;16.00;;;24.20;89.00;;;;;;7400795;19;20013;-79
2023/09/12 09:02:24;;;;;;;26.73;17.20;;;24.10;88.90;;;;;;7423274;19;20003;-79
2023/09/12 09:04:53;;;;;;;27.35;15.60;;;24.10;89.00;;;;;;7403678;19;20010;-79
2023/09/12 09:07:23;;;;;;;31.00;15.27;;;24.10;88.90;;;;;;7403313;19;20006;-78
2023/09/12 09:09:54;;;;;;;25.25;14.55;;;24.10;88.80;;;;;;7389083;19;20002;-79
2023/09/12 09:12:25;;;;;;;27.40;15.30;;;24.20;88.90;;;;;;7387856;19;20007;-79
2023/09/12 09:14:53;;;;;;;;;;;24.20;88.70;;;;;;7385009;19;19999;-77
2023/09/12 09:17:22;;;;;;;21.92;14.05;;;24.20;88.70;;;;;;7404422;19;20156;-78
2023/09/12 09:19:51;;;;;;;25.05;14.00;;;24.20;88.60;;;;;;7382720;19;20228;-78
2023/09/12 09:22:20;;;;;;;26.70;15.55;;;24.30;88.80;;;;;;7385750;19;20010;-78
2023/09/12 09:24:50;;;;;;;33.10;13.98;;;24.30;88.70;;;;;;7385215;19;20038;-78
2023/09/12 09:27:36;;;;;;;28.70;15.20;;;24.30;88.60;;;;;;7386833;19;20006;-78
2023/09/12 09:30:05;;;;;;;33.35;18.88;;;24.30;88.60;;;;;;7385491;19;20015;-79
2023/09/12 09:32:34;;;;;;;29.98;17.05;;;24.30;89.00;;;;;;7404728;19;20011;-79
2023/09/12 09:35:03;;;;;;;33.72;17.02;;;24.30;89.70;;;;;;7385345;19;20003;-79
2023/09/12 09:37:32;;;;;;;39.22;19.15;;;24.30;90.40;;;;;;7385140;19;20144;-79
2023/09/12 09:40:04;;;;;;;33.15;18.52;;;24.20;90.80;;;;;;7384734;19;20018;-80
2023/09/12 09:42:35;;;;;;;38.85;18.70;;;24.20;91.30;;;;;;7386216;19;20080;-80
2023/09/12 09:45:05;;;;;;;37.92;18.63;;;24.10;91.60;;;;;;7385398;19;20045;-80
2023/09/12 09:47:36;;;;;;;42.92;20.65;;;24.00;91.60;;;;;;7405503;19;20002;-80
2023/09/12 09:50:05;;;;;;;34.33;20.30;;;23.90;91.80;;;;;;7385762;19;20011;-79
2023/09/12 09:52:33;;;;;;;37.05;22.20;;;23.80;92.00;;;;;;7384300;19;20403;-80
2023/09/12 09:55:04;;;;;;;43.40;22.27;;;23.60;92.50;;;;;;7385983;19;20007;-79
2023/09/12 09:57:41;;;;;;;50.20;21.88;;;23.50;93.00;;;;;;7385598;19;20113;-79
2023/09/12 10:00:14;;;;;;;61.53;23.35;;;23.50;93.40;;;;;;7385800;19;20009;-80
2023/09/12 10:02:45;;;;;;;43.47;23.75;;;23.50;93.40;;;;;;7387216;19;20007;-81
2023/09/12 10:05:25;;;;;;;45.65;24.40;;;23.40;93.50;;;;;;7409211;19;20027;-80
2023/09/12 10:07:55;;;;;;;41.17;22.40;;;23.30;93.90;;;;;;7390457;19;20006;-80
2023/09/12 10:10:27;;;;;;;52.72;23.88;;;23.30;94.60;;;;;;7390110;19;20021;-80
2023/09/12 10:13:00;;;;;;;38.25;21.77;;;23.30;95.10;;;;;;7391497;19;20007;-80
2023/09/12 10:15:32;;;;;;;50.15;24.67;;;23.30;95.80;;;;;;7391536;19;20003;-79
2023/09/12 10:18:02;;;;;;;50.78;24.38;;;23.30;96.00;;;;;;7391409;19;20026;-79
2023/09/12 10:20:43;;;;;;;52.47;26.57;;;23.30;96.40;;;;;;7413786;19;20002;-79
2023/09/12 10:23:22;;;;;;;57.75;26.45;;;23.30;96.10;;;;;;7391840;19;20011;-78
2023/09/12 10:25:53;;;;;;;47.90;24.58;;;23.30;96.40;;;;;;7391544;19;20010;-79
2023/09/12 10:28:25;;;;;;;49.88;24.52;;;23.20;96.20;;;;;;7391553;19;20003;-79
2023/09/12 10:30:55;;;;;;;61.40;25.90;;;23.20;96.40;;;;;;7391464;19;20014;-79
2023/09/12 10:33:25;;;;;;;52.83;23.52;;;23.20;96.90;;;;;;7397086;19;20002;-78
2023/09/12 10:35:55;;;;;;;39.13;23.58;;;23.30;96.90;;;;;;7396403;19;20238;-79
2023/09/12 10:38:26;;;;;;;35.15;22.63;;;23.20;96.70;;;;;;7418276;19;20035;-79
2023/09/12 10:40:56;;;;;;;;;;;23.20;97.00;;;;;;7398607;19;20003;-80
2023/09/12 10:43:28;;;;;;;39.80;22.13;;;23.20;97.10;;;;;;7397246;19;19914;-79
2023/09/12 10:45:59;;;;;;;43.63;22.70;;;23.10;97.00;;;;;;7397128;19;20014;-79
2023/09/12 10:48:28;;;;;;;53.17;22.20;;;23.10;97.30;;;;;;7396222;19;20006;-79
2023/09/12 10:51:00;;;;;;;40.55;20.50;;;23.00;97.10;;;;;;7393994;19;20020;-78
2023/09/12 10:53:30;;;;;;;36.88;18.67;;;22.90;97.30;;;;;;7416003;19;20006;-79
2023/09/12 10:56:03;;;;;;;32.83;17.63;;;22.90;97.50;;;;;;7391475;19;20011;-79
2023/09/12 10:58:34;;;;;;;51.55;17.75;;;22.80;97.30;;;;;;7401110;19;20003;-80
2023/09/12 11:01:24;;;;;;;29.88;16.80;;;22.90;97.70;;;;;;7407473;19;20010;-79
2023/09/12 11:03:53;;;;;;;34.30;16.77;;;22.90;98.00;;;;;;7409261;19;20014;-79
2023/09/12 11:06:31;;;;;;;24.70;15.95;;;22.90;97.90;;;;;;7409944;19;20055;-78
2023/09/12 11:09:19;;;;;;;25.25;14.23;;;22.90;98.10;;;;;;7403939;19;20007;-80
2023/09/12 11:11:50;;;;;;;25.70;12.68;;;22.90;98.70;;;;;;7398258;19;20014;-79
2023/09/12 11:14:23;;;;;;;17.67;10.50;;;23.00;98.50;;;;;;7418871;19;20011;-80
2023/09/12 11:17:22;;;;;;;25.75;11.45;;;22.90;98.20;;;;;;7400197;19;20027;-79
2023/09/12 11:19:52;;;;;;;30.23;12.07;;;22.80;98.50;;;;;;7396056;19;20002;-79
2023/09/12 11:22:28;;;;;;;22.33;11.38;;;22.80;98.90;;;;;;7398621;19;20006;-79
2023/09/12 11:24:58;;;;;;;16.85;7.25;;;22.80;99.40;;;;;;7398422;19;20006;-81
2023/09/12 11:27:34;;;;;;;13.10;7.32;;;22.90;99.30;;;;;;7398890;19;20010;-80
2023/09/12 11:30:16;;;;;;;12.68;7.07;;;22.90;99.30;;;;;;7398529;19;20006;-78
2023/09/12 11:32:48;;;;;;;9.50;6.47;;;22.90;99.40;;;;;;7397104;19;20023;-79
2023/09/12 11:35:17;;;;;;;11.80;7.45;;;22.90;99.60;;;;;;7419542;19;20011;-78
2023/09/12 11:37:51;;;;;;;10.70;5.97;;;22.90;99.40;;;;;;7397537;19;19999;-79
2023/09/12 11:40:26;;;;;;;11.30;5.28;;;22.90;99.20;;;;;;7398403;19;20007;-79
2023/09/12 11:42:56;;;;;;;9.40;5.30;;;22.90;99.10;;;;;;7395398;19;20063;-80
2023/09/12 11:45:30;;;;;;;12.43;4.80;;;22.90;98.90;;;;;;7397180;19;20026;-78
2023/09/12 11:47:59;;;;;;;15.07;4.70;;;22.90;98.40;;;;;;7396457;19;20366;-80
2023/09/12 11:50:32;;;;;;;11.05;5.40;;;22.90;98.60;;;;;;7418122;19;20003;-79
2023/09/12 11:53:06;;;;;;;7.85;4.75;;;23.00;99.30;;;;;;7397233;19;20014;-79
2023/09/12 11:55:36;;;;;;;9.05;5.20;;;23.20;99.80;;;;;;7395998;19;20086;-79
2023/09/12 11:58:07;;;;;;;8.35;4.53;;;23.40;99.90;;;;;;7396735;19;20027;-81
2023/09/12 12:00:41;;;;;;;8.57;5.05;;;23.40;99.90;;;;;;7395331;19;20030;-79
2023/09/12 12:03:12;;;;;;;7.00;4.63;;;23.50;99.90;;;;;;7394507;19;20013;-80
2023/09/12 12:05:44;;;;;;;7.35;4.63;;;23.70;99.20;;;;;;7393493;19;20050;-79
2023/09/12 12:08:32;;;;;;;9.50;4.80;;;23.80;99.50;;;;;;7412619;19;20014;-80
2023/09/12 12:11:22;;;;;;;11.10;5.03;;;23.90;99.90;;;;;;7393255;19;20357;-79
2023/09/12 12:13:54;;;;;;;12.48;4.78;;;24.00;99.90;;;;;;7396630;19;20027;-79
2023/09/12 12:16:43;;;;;;;12.70;6.07;;;24.00;99.90;;;;;;7395577;19;20014;-80
2023/09/12 12:19:23;;;;;;;9.93;5.97;;;24.10;99.70;;;;;;7394651;19;20007;-81
2023/09/12 12:22:22;;;;;;;10.55;6.25;;;24.10;99.50;;;;;;7393947;19;20002;-80
2023/09/12 12:25:14;;;;;;;7.88;5.10;;;24.20;99.70;;;;;;7392916;19;20007;-79
2023/09/12 12:30:34;;;;;;;6.15;5.43;;;24.30;98.40;;;;;;7392992;19;20018;-80
2023/09/12 12:33:14;;;;;;;9.02;5.15;;;24.30;98.40;;;;;;7392454;19;20006;-81
2023/09/12 12:35:50;;;;;;;8.70;4.97;;;24.30;98.80;;;;;;7393223;19;20223;-79
2023/09/12 12:38:24;;;;;;;10.13;5.25;;;24.20;98.10;;;;;;7414128;19;20027;-80
2023/09/12 12:41:10;;;;;;;10.63;4.97;;;24.20;98.20;;;;;;7392060;19;20007;-81
2023/09/12 12:43:54;;;;;;;11.57;5.18;;;24.10;98.00;;;;;;7393510;19;20006;-79
2023/09/12 12:49:41;;;;;;;10.98;4.55;;;24.00;97.90;;;;;;7394524;19;20011;-80
2023/09/12 12:52:19;;;;;;;;;;;23.90;97.90;;;;;;7395588;19;20006;-80
2023/09/12 12:55:05;;;;;;;6.18;4.25;;;24.00;98.30;;;;;;7395987;19;19939;-79
2023/09/12 13:00:50;;;;;;;10.68;5.03;;;23.80;97.80;;;;;;7400934;19;20306;-80
2023/09/12 13:03:21;;;;;;;10.43;6.18;;;24.00;98.80;;;;;;7398658;19;20011;-79